sensor_id;sensor_type;location;lat;lon;timestamp;P1;durP1;ratioP1;P2;durP2;ratioP2
14373;SDS011;7270;49.004;12.066;2022-08-01T00:01:22;1.00;;;1.00;;
14373;SDS011;7270;49.004;12.066;2022-08-01T00:03:50;0.90;;;0.90;;
14373;SDS011;7270;49.004;12.066;2022-08-01T00:06:16;0.90;;;0.90;;
14373;SDS011;7270;49.004;12.066;2022-08-01T00:08:43;0.90;;;0.90;;
14373;SDS011;7270;49.004;12.066;2022-08-01T00:11:09;1.03;;;1.03;;
14373;SDS011;7270;49.004;12.066;2022-08-01T00:13:36;1.00;;;1.00;;
14373;SDS011;7270;49.004;12.066;2022-08-01T00:16:02;0.80;;;0.80;;
14373;SDS011;7270;49.004;12.066;2022-08-01T00:18:31;1.00;;;1.00;;
14373;SDS011;7270;49.004;12.066;2022-08-01T00:20:59;0.90;;;0.90;;
14373;SDS011;7270;49.004;12.066;2022-08-01T00:23:25;1.10;;;1.10;;
14373;SDS011;7270;49.004;12.066;2022-08-01T00:25:51;1.00;;;1.00;;
14373;SDS011;7270;49.004;12.066;2022-08-01T00:28:18;0.90;;;0.90;;
14373;SDS011;7270;49.004;12.066;2022-08-01T00:30:44;1.00;;;1.00;;
14373;SDS011;7270;49.004;12.066;2022-08-01T00:33:11;0.80;;;0.80;;
14373;SDS011;7270;49.004;12.066;2022-08-01T00:35:37;1.00;;;1.00;;
14373;SDS011;7270;49.004;12.066;2022-08-01T00:38:05;1.00;;;1.00;;
14373;SDS011;7270;49.004;12.066;2022-08-01T00:40:31;0.90;;;0.90;;
14373;SDS011;7270;49.004;12.066;2022-08-01T00:42:58;1.03;;;1.03;;
14373;SDS011;7270;49.004;12.066;2022-08-01T00:45:24;0.90;;;0.90;;
14373;SDS011;7270;49.004;12.066;2022-08-01T00:47:50;1.07;;;1.07;;
14373;SDS011;7270;49.004;12.066;2022-08-01T00:50:17;1.00;;;1.00;;
14373;SDS011;7270;49.004;12.066;2022-08-01T00:52:43;1.10;;;1.10;;
14373;SDS011;7270;49.004;12.066;2022-08-01T00:55:11;0.90;;;0.90;;
14373;SDS011;7270;49.004;12.066;2022-08-01T00:57:38;1.10;;;1.10;;
14373;SDS011;7270;49.004;12.066;2022-08-01T01:00:05;0.90;;;0.90;;
14373;SDS011;7270;49.004;12.066;2022-08-01T01:02:32;0.90;;;0.90;;
14373;SDS011;7270;49.004;12.066;2022-08-01T01:04:59;0.97;;;0.97;;
14373;SDS011;7270;49.004;12.066;2022-08-01T01:07:28;0.93;;;0.93;;
14373;SDS011;7270;49.004;12.066;2022-08-01T01:09:58;1.30;;;1.20;;
14373;SDS011;7270;49.004;12.066;2022-08-01T01:12:29;0.90;;;0.90;;
14373;SDS011;7270;49.004;12.066;2022-08-01T01:15:00;0.90;;;0.90;;
14373;SDS011;7270;49.004;12.066;2022-08-01T01:17:29;0.90;;;0.90;;
14373;SDS011;7270;49.004;12.066;2022-08-01T01:19:58;1.00;;;1.00;;
14373;SDS011;7270;49.004;12.066;2022-08-01T01:22:43;0.90;;;0.90;;
14373;SDS011;7270;49.004;12.066;2022-08-01T01:25:18;0.90;;;0.90;;
14373;SDS011;7270;49.004;12.066;2022-08-01T01:27:49;1.00;;;1.00;;
14373;SDS011;7270;49.004;12.066;2022-08-01T01:30:18;1.00;;;1.00;;
14373;SDS011;7270;49.004;12.066;2022-08-01T01:32:46;1.00;;;1.00;;
14373;SDS011;7270;49.004;12.066;2022-08-01T01:35:15;0.90;;;0.90;;
14373;SDS011;7270;49.004;12.066;2022-08-01T01:37:42;0.90;;;0.90;;
14373;SDS011;7270;49.004;12.066;2022-08-01T01:40:10;0.90;;;0.90;;
14373;SDS011;7270;49.004;12.066;2022-08-01T01:42:37;0.90;;;0.90;;
14373;SDS011;7270;49.004;12.066;2022-08-01T01:45:05;0.80;;;0.80;;
14373;SDS011;7270;49.004;12.066;2022-08-01T01:47:33;0.87;;;0.87;;
14373;SDS011;7270;49.004;12.066;2022-08-01T01:50:00;1.00;;;1.00;;
14373;SDS011;7270;49.004;12.066;2022-08-01T01:52:27;0.90;;;0.90;;
14373;SDS011;7270;49.004;12.066;2022-08-01T01:54:55;0.90;;;0.90;;
14373;SDS011;7270;49.004;12.066;2022-08-01T01:57:22;0.90;;;0.90;;
14373;SDS011;7270;49.004;12.066;2022-08-01T01:59:49;0.90;;;0.90;;
14373;SDS011;7270;49.004;12.066;2022-08-01T02:02:17;0.90;;;0.90;;
14373;SDS011;7270;49.004;12.066;2022-08-01T02:04:46;1.00;;;1.00;;
14373;SDS011;7270;49.004;12.066;2022-08-01T02:07:13;1.00;;;1.00;;
14373;SDS011;7270;49.004;12.066;2022-08-01T02:09:41;0.90;;;0.90;;
14373;SDS011;7270;49.004;12.066;2022-08-01T02:12:08;0.90;;;0.90;;
14373;SDS011;7270;49.004;12.066;2022-08-01T02:14:36;0.80;;;0.80;;
14373;SDS011;7270;49.004;12.066;2022-08-01T02:17:04;0.80;;;0.80;;
14373;SDS011;7270;49.004;12.066;2022-08-01T02:19:32;0.80;;;0.80;;
14373;SDS011;7270;49.004;12.066;2022-08-01T02:22:01;0.90;;;0.90;;
14373;SDS011;7270;49.004;12.066;2022-08-01T02:24:28;0.90;;;0.90;;
14373;SDS011;7270;49.004;12.066;2022-08-01T02:26:58;0.77;;;0.77;;
14373;SDS011;7270;49.004;12.066;2022-08-01T02:29:27;0.80;;;0.80;;
14373;SDS011;7270;49.004;12.066;2022-08-01T02:31:54;0.90;;;0.90;;
14373;SDS011;7270;49.004;12.066;2022-08-01T02:34:20;0.80;;;0.80;;
14373;SDS011;7270;49.004;12.066;2022-08-01T02:36:47;0.90;;;0.90;;
14373;SDS011;7270;49.004;12.066;2022-08-01T02:39:16;0.90;;;0.90;;
14373;SDS011;7270;49.004;12.066;2022-08-01T02:41:45;1.00;;;1.00;;
14373;SDS011;7270;49.004;12.066;2022-08-01T02:44:15;0.80;;;0.80;;
14373;SDS011;7270;49.004;12.066;2022-08-01T02:46:44;1.00;;;1.00;;
14373;SDS011;7270;49.004;12.066;2022-08-01T02:49:12;0.90;;;0.90;;
14373;SDS011;7270;49.004;12.066;2022-08-01T02:51:41;1.00;;;1.00;;
14373;SDS011;7270;49.004;12.066;2022-08-01T02:54:09;0.80;;;0.80;;
14373;SDS011;7270;49.004;12.066;2022-08-01T02:56:38;1.00;;;1.00;;
14373;SDS011;7270;49.004;12.066;2022-08-01T02:59:06;0.90;;;0.90;;
14373;SDS011;7270;49.004;12.066;2022-08-01T03:01:34;0.90;;;0.90;;
14373;SDS011;7270;49.004;12.066;2022-08-01T03:04:01;0.90;;;0.90;;
14373;SDS011;7270;49.004;12.066;2022-08-01T03:06:31;0.90;;;0.90;;
14373;SDS011;7270;49.004;12.066;2022-08-01T03:08:58;0.83;;;0.83;;
14373;SDS011;7270;49.004;12.066;2022-08-01T03:11:25;0.80;;;0.80;;
14373;SDS011;7270;49.004;12.066;2022-08-01T03:13:55;0.80;;;0.80;;
14373;SDS011;7270;49.004;12.066;2022-08-01T03:16:21;1.00;;;1.00;;
14373;SDS011;7270;49.004;12.066;2022-08-01T03:18:48;0.80;;;0.80;;
14373;SDS011;7270;49.004;12.066;2022-08-01T03:21:15;1.00;;;1.00;;
14373;SDS011;7270;49.004;12.066;2022-08-01T03:23:43;0.90;;;0.90;;
14373;SDS011;7270;49.004;12.066;2022-08-01T03:26:11;0.90;;;0.90;;
14373;SDS011;7270;49.004;12.066;2022-08-01T03:28:38;0.87;;;0.87;;
14373;SDS011;7270;49.004;12.066;2022-08-01T03:31:06;0.80;;;0.80;;
14373;SDS011;7270;49.004;12.066;2022-08-01T03:33:32;0.90;;;0.90;;
14373;SDS011;7270;49.004;12.066;2022-08-01T03:35:58;0.90;;;0.90;;
14373;SDS011;7270;49.004;12.066;2022-08-01T03:38:26;0.90;;;0.90;;
14373;SDS011;7270;49.004;12.066;2022-08-01T03:40:53;1.00;;;1.00;;
14373;SDS011;7270;49.004;12.066;2022-08-01T03:43:22;0.90;;;0.90;;
14373;SDS011;7270;49.004;12.066;2022-08-01T03:45:52;0.80;;;0.80;;
14373;SDS011;7270;49.004;12.066;2022-08-01T03:48:24;1.00;;;1.00;;
14373;SDS011;7270;49.004;12.066;2022-08-01T03:50:54;0.93;;;0.93;;
14373;SDS011;7270;49.004;12.066;2022-08-01T03:53:23;0.97;;;0.97;;
14373;SDS011;7270;49.004;12.066;2022-08-01T03:55:50;1.00;;;1.00;;
14373;SDS011;7270;49.004;12.066;2022-08-01T03:58:18;1.00;;;1.00;;
14373;SDS011;7270;49.004;12.066;2022-08-01T04:00:45;1.00;;;1.00;;
14373;SDS011;7270;49.004;12.066;2022-08-01T04:03:12;0.97;;;0.97;;
14373;SDS011;7270;49.004;12.066;2022-08-01T04:05:41;0.93;;;0.93;;
14373;SDS011;7270;49.004;12.066;2022-08-01T04:08:08;0.90;;;0.90;;
14373;SDS011;7270;49.004;12.066;2022-08-01T04:10:34;1.00;;;1.00;;
14373;SDS011;7270;49.004;12.066;2022-08-01T04:13:01;0.83;;;0.83;;
14373;SDS011;7270;49.004;12.066;2022-08-01T04:15:27;1.00;;;1.00;;
14373;SDS011;7270;49.004;12.066;2022-08-01T04:17:53;0.90;;;0.90;;
14373;SDS011;7270;49.004;12.066;2022-08-01T04:20:20;0.90;;;0.90;;
14373;SDS011;7270;49.004;12.066;2022-08-01T04:22:48;1.00;;;1.00;;
14373;SDS011;7270;49.004;12.066;2022-08-01T04:25:15;0.90;;;0.90;;
14373;SDS011;7270;49.004;12.066;2022-08-01T04:27:42;0.93;;;0.93;;
14373;SDS011;7270;49.004;12.066;2022-08-01T04:30:10;0.90;;;0.90;;
14373;SDS011;7270;49.004;12.066;2022-08-01T04:32:37;0.90;;;0.90;;
14373;SDS011;7270;49.004;12.066;2022-08-01T04:35:05;0.90;;;0.90;;
14373;SDS011;7270;49.004;12.066;2022-08-01T04:37:32;0.90;;;0.90;;
14373;SDS011;7270;49.004;12.066;2022-08-01T04:40:03;0.90;;;0.90;;
14373;SDS011;7270;49.004;12.066;2022-08-01T04:42:30;0.90;;;0.90;;
14373;SDS011;7270;49.004;12.066;2022-08-01T04:44:57;1.00;;;1.00;;
14373;SDS011;7270;49.004;12.066;2022-08-01T04:47:23;0.90;;;0.90;;
14373;SDS011;7270;49.004;12.066;2022-08-01T04:49:51;0.93;;;0.93;;
14373;SDS011;7270;49.004;12.066;2022-08-01T04:52:17;0.90;;;0.90;;
14373;SDS011;7270;49.004;12.066;2022-08-01T04:54:44;0.90;;;0.90;;
14373;SDS011;7270;49.004;12.066;2022-08-01T04:57:12;1.00;;;1.00;;
14373;SDS011;7270;49.004;12.066;2022-08-01T04:59:41;1.10;;;1.10;;
14373;SDS011;7270;49.004;12.066;2022-08-01T05:02:09;1.00;;;1.00;;
14373;SDS011;7270;49.004;12.066;2022-08-01T05:04:36;1.00;;;1.00;;
14373;SDS011;7270;49.004;12.066;2022-08-01T05:07:03;1.00;;;1.00;;
14373;SDS011;7270;49.004;12.066;2022-08-01T05:09:30;1.00;;;1.00;;
14373;SDS011;7270;49.004;12.066;2022-08-01T05:11:57;1.00;;;1.00;;
14373;SDS011;7270;49.004;12.066;2022-08-01T05:14:25;1.00;;;1.00;;
14373;SDS011;7270;49.004;12.066;2022-08-01T05:16:52;1.00;;;1.00;;
14373;SDS011;7270;49.004;12.066;2022-08-01T05:19:18;1.03;;;1.03;;
14373;SDS011;7270;49.004;12.066;2022-08-01T05:21:45;0.90;;;0.90;;
14373;SDS011;7270;49.004;12.066;2022-08-01T05:24:11;1.10;;;1.10;;
14373;SDS011;7270;49.004;12.066;2022-08-01T05:26:38;1.20;;;1.20;;
14373;SDS011;7270;49.004;12.066;2022-08-01T05:29:04;0.97;;;0.97;;
14373;SDS011;7270;49.004;12.066;2022-08-01T05:31:32;1.20;;;1.17;;
14373;SDS011;7270;49.004;12.066;2022-08-01T05:33:59;1.10;;;1.10;;
14373;SDS011;7270;49.004;12.066;2022-08-01T05:36:26;1.10;;;1.10;;
14373;SDS011;7270;49.004;12.066;2022-08-01T05:38:52;1.10;;;1.10;;
14373;SDS011;7270;49.004;12.066;2022-08-01T05:41:18;1.10;;;1.10;;
14373;SDS011;7270;49.004;12.066;2022-08-01T05:43:45;1.10;;;1.10;;
14373;SDS011;7270;49.004;12.066;2022-08-01T05:46:12;1.03;;;1.03;;
14373;SDS011;7270;49.004;12.066;2022-08-01T05:48:40;1.10;;;1.10;;
14373;SDS011;7270;49.004;12.066;2022-08-01T05:51:06;1.30;;;1.20;;
14373;SDS011;7270;49.004;12.066;2022-08-01T05:53:32;1.10;;;1.10;;
14373;SDS011;7270;49.004;12.066;2022-08-01T05:55:59;1.10;;;1.10;;
14373;SDS011;7270;49.004;12.066;2022-08-01T05:58:26;1.20;;;1.20;;
14373;SDS011;7270;49.004;12.066;2022-08-01T06:00:52;1.00;;;1.00;;
14373;SDS011;7270;49.004;12.066;2022-08-01T06:03:18;1.10;;;1.10;;
14373;SDS011;7270;49.004;12.066;2022-08-01T06:05:46;1.10;;;1.10;;
14373;SDS011;7270;49.004;12.066;2022-08-01T06:08:13;1.10;;;1.10;;
14373;SDS011;7270;49.004;12.066;2022-08-01T06:10:39;1.27;;;1.20;;
14373;SDS011;7270;49.004;12.066;2022-08-01T06:13:06;1.10;;;1.10;;
14373;SDS011;7270;49.004;12.066;2022-08-01T06:15:33;1.10;;;1.10;;
14373;SDS011;7270;49.004;12.066;2022-08-01T06:18:01;1.10;;;1.10;;
14373;SDS011;7270;49.004;12.066;2022-08-01T06:20:28;1.10;;;1.10;;
14373;SDS011;7270;49.004;12.066;2022-08-01T06:23:02;1.20;;;1.20;;
14373;SDS011;7270;49.004;12.066;2022-08-01T06:25:34;1.27;;;1.20;;
14373;SDS011;7270;49.004;12.066;2022-08-01T06:28:02;1.10;;;1.10;;
14373;SDS011;7270;49.004;12.066;2022-08-01T06:30:29;1.20;;;1.20;;
14373;SDS011;7270;49.004;12.066;2022-08-01T06:32:55;1.10;;;1.10;;
14373;SDS011;7270;49.004;12.066;2022-08-01T06:35:23;1.20;;;1.20;;
14373;SDS011;7270;49.004;12.066;2022-08-01T06:37:50;1.10;;;1.10;;
14373;SDS011;7270;49.004;12.066;2022-08-01T06:40:18;1.10;;;1.10;;
14373;SDS011;7270;49.004;12.066;2022-08-01T06:42:45;1.10;;;1.10;;
14373;SDS011;7270;49.004;12.066;2022-08-01T06:45:12;1.23;;;1.20;;
14373;SDS011;7270;49.004;12.066;2022-08-01T06:47:38;1.10;;;1.10;;
14373;SDS011;7270;49.004;12.066;2022-08-01T06:50:06;1.10;;;1.10;;
14373;SDS011;7270;49.004;12.066;2022-08-01T06:52:33;1.20;;;1.20;;
14373;SDS011;7270;49.004;12.066;2022-08-01T06:55:00;1.30;;;1.20;;
14373;SDS011;7270;49.004;12.066;2022-08-01T06:57:45;1.20;;;1.20;;
14373;SDS011;7270;49.004;12.066;2022-08-01T07:00:21;1.20;;;1.20;;
14373;SDS011;7270;49.004;12.066;2022-08-01T07:02:50;1.40;;;1.30;;
14373;SDS011;7270;49.004;12.066;2022-08-01T07:05:16;1.00;;;1.00;;
14373;SDS011;7270;49.004;12.066;2022-08-01T07:07:43;1.10;;;1.10;;
14373;SDS011;7270;49.004;12.066;2022-08-01T07:10:09;1.10;;;1.10;;
14373;SDS011;7270;49.004;12.066;2022-08-01T07:12:37;1.23;;;1.20;;
14373;SDS011;7270;49.004;12.066;2022-08-01T07:15:07;1.10;;;1.10;;
14373;SDS011;7270;49.004;12.066;2022-08-01T07:17:36;1.17;;;1.17;;
14373;SDS011;7270;49.004;12.066;2022-08-01T07:20:02;1.30;;;1.20;;
14373;SDS011;7270;49.004;12.066;2022-08-01T07:22:29;1.40;;;1.30;;
14373;SDS011;7270;49.004;12.066;2022-08-01T07:24:55;1.23;;;1.20;;
14373;SDS011;7270;49.004;12.066;2022-08-01T07:27:22;1.40;;;1.30;;
14373;SDS011;7270;49.004;12.066;2022-08-01T07:29:51;1.40;;;1.30;;
14373;SDS011;7270;49.004;12.066;2022-08-01T07:32:19;1.40;;;1.30;;
14373;SDS011;7270;49.004;12.066;2022-08-01T07:34:46;1.50;;;1.40;;
14373;SDS011;7270;49.004;12.066;2022-08-01T07:37:13;1.40;;;1.30;;
14373;SDS011;7270;49.004;12.066;2022-08-01T07:39:40;1.50;;;1.40;;
14373;SDS011;7270;49.004;12.066;2022-08-01T07:42:06;1.60;;;1.50;;
14373;SDS011;7270;49.004;12.066;2022-08-01T07:44:33;1.50;;;1.40;;
14373;SDS011;7270;49.004;12.066;2022-08-01T07:46:59;1.60;;;1.50;;
14373;SDS011;7270;49.004;12.066;2022-08-01T07:49:27;1.60;;;1.50;;
14373;SDS011;7270;49.004;12.066;2022-08-01T07:51:53;1.50;;;1.40;;
14373;SDS011;7270;49.004;12.066;2022-08-01T07:54:19;1.70;;;1.60;;
14373;SDS011;7270;49.004;12.066;2022-08-01T07:56:48;1.80;;;1.70;;
14373;SDS011;7270;49.004;12.066;2022-08-01T07:59:15;1.80;;;1.70;;
14373;SDS011;7270;49.004;12.066;2022-08-01T08:01:41;1.80;;;1.70;;
14373;SDS011;7270;49.004;12.066;2022-08-01T08:04:08;1.85;;;1.75;;
14373;SDS011;7270;49.004;12.066;2022-08-01T08:06:38;2.03;;;1.92;;
14373;SDS011;7270;49.004;12.066;2022-08-01T08:09:07;1.90;;;1.80;;
14373;SDS011;7270;49.004;12.066;2022-08-01T08:11:33;2.00;;;1.90;;
14373;SDS011;7270;49.004;12.066;2022-08-01T08:14:00;2.10;;;2.00;;
14373;SDS011;7270;49.004;12.066;2022-08-01T08:16:27;2.10;;;2.00;;
14373;SDS011;7270;49.004;12.066;2022-08-01T08:18:53;2.08;;;1.98;;
14373;SDS011;7270;49.004;12.066;2022-08-01T08:21:20;1.80;;;1.70;;
14373;SDS011;7270;49.004;12.066;2022-08-01T08:23:47;1.70;;;1.60;;
14373;SDS011;7270;49.004;12.066;2022-08-01T08:26:33;1.70;;;1.60;;
14373;SDS011;7270;49.004;12.066;2022-08-01T08:28:59;1.70;;;1.60;;
14373;SDS011;7270;49.004;12.066;2022-08-01T08:31:27;1.70;;;1.60;;
14373;SDS011;7270;49.004;12.066;2022-08-01T08:33:54;1.50;;;1.40;;
14373;SDS011;7270;49.004;12.066;2022-08-01T08:36:22;1.50;;;1.40;;
14373;SDS011;7270;49.004;12.066;2022-08-01T08:38:50;1.50;;;1.40;;
14373;SDS011;7270;49.004;12.066;2022-08-01T08:41:17;1.60;;;1.50;;
14373;SDS011;7270;49.004;12.066;2022-08-01T08:43:43;1.50;;;1.40;;
14373;SDS011;7270;49.004;12.066;2022-08-01T08:46:10;1.50;;;1.40;;
14373;SDS011;7270;49.004;12.066;2022-08-01T08:48:38;1.47;;;1.37;;
14373;SDS011;7270;49.004;12.066;2022-08-01T08:51:05;1.30;;;1.20;;
14373;SDS011;7270;49.004;12.066;2022-08-01T08:53:33;1.20;;;1.20;;
14373;SDS011;7270;49.004;12.066;2022-08-01T08:56:02;1.23;;;1.20;;
14373;SDS011;7270;49.004;12.066;2022-08-01T08:58:29;1.40;;;1.30;;
14373;SDS011;7270;49.004;12.066;2022-08-01T09:00:59;1.40;;;1.30;;
14373;SDS011;7270;49.004;12.066;2022-08-01T09:03:25;1.40;;;1.30;;
14373;SDS011;7270;49.004;12.066;2022-08-01T09:05:52;1.40;;;1.30;;
14373;SDS011;7270;49.004;12.066;2022-08-01T09:08:19;1.40;;;1.30;;
14373;SDS011;7270;49.004;12.066;2022-08-01T09:10:46;1.20;;;1.20;;
14373;SDS011;7270;49.004;12.066;2022-08-01T09:13:14;1.30;;;1.20;;
14373;SDS011;7270;49.004;12.066;2022-08-01T09:15:41;1.37;;;1.27;;
14373;SDS011;7270;49.004;12.066;2022-08-01T09:18:08;1.50;;;1.40;;
14373;SDS011;7270;49.004;12.066;2022-08-01T09:20:34;1.50;;;1.40;;
14373;SDS011;7270;49.004;12.066;2022-08-01T09:23:01;1.20;;;1.20;;
14373;SDS011;7270;49.004;12.066;2022-08-01T09:25:28;1.53;;;1.43;;
14373;SDS011;7270;49.004;12.066;2022-08-01T09:28:02;1.50;;;1.40;;
14373;SDS011;7270;49.004;12.066;2022-08-01T09:30:30;1.40;;;1.30;;
14373;SDS011;7270;49.004;12.066;2022-08-01T09:33:04;1.20;;;1.20;;
14373;SDS011;7270;49.004;12.066;2022-08-01T09:35:33;1.40;;;1.30;;
14373;SDS011;7270;49.004;12.066;2022-08-01T09:38:11;1.40;;;1.30;;
14373;SDS011;7270;49.004;12.066;2022-08-01T09:40:47;1.50;;;1.40;;
14373;SDS011;7270;49.004;12.066;2022-08-01T09:43:14;1.47;;;1.37;;
14373;SDS011;7270;49.004;12.066;2022-08-01T09:45:42;1.50;;;1.40;;
14373;SDS011;7270;49.004;12.066;2022-08-01T09:48:09;1.17;;;1.17;;
14373;SDS011;7270;49.004;12.066;2022-08-01T09:50:40;1.60;;;1.50;;
14373;SDS011;7270;49.004;12.066;2022-08-01T09:53:07;1.33;;;1.30;;
14373;SDS011;7270;49.004;12.066;2022-08-01T09:55:33;1.60;;;1.50;;
14373;SDS011;7270;49.004;12.066;2022-08-01T09:57:59;1.60;;;1.50;;
14373;SDS011;7270;49.004;12.066;2022-08-01T10:00:26;1.60;;;1.50;;
14373;SDS011;7270;49.004;12.066;2022-08-01T10:02:54;1.70;;;1.60;;
14373;SDS011;7270;49.004;12.066;2022-08-01T10:05:31;1.60;;;1.50;;
14373;SDS011;7270;49.004;12.066;2022-08-01T10:08:05;1.60;;;1.50;;
14373;SDS011;7270;49.004;12.066;2022-08-01T10:10:31;1.60;;;1.50;;
14373;SDS011;7270;49.004;12.066;2022-08-01T10:12:58;1.50;;;1.40;;
14373;SDS011;7270;49.004;12.066;2022-08-01T10:15:26;1.50;;;1.40;;
14373;SDS011;7270;49.004;12.066;2022-08-01T10:17:55;1.50;;;1.40;;
14373;SDS011;7270;49.004;12.066;2022-08-01T10:20:23;1.60;;;1.50;;
14373;SDS011;7270;49.004;12.066;2022-08-01T10:22:50;1.60;;;1.50;;
14373;SDS011;7270;49.004;12.066;2022-08-01T10:25:19;1.40;;;1.30;;
14373;SDS011;7270;49.004;12.066;2022-08-01T10:27:46;1.60;;;1.50;;
14373;SDS011;7270;49.004;12.066;2022-08-01T10:30:14;1.43;;;1.33;;
14373;SDS011;7270;49.004;12.066;2022-08-01T10:32:40;1.50;;;1.40;;
14373;SDS011;7270;49.004;12.066;2022-08-01T10:35:09;1.40;;;1.30;;
14373;SDS011;7270;49.004;12.066;2022-08-01T10:37:39;1.50;;;1.40;;
14373;SDS011;7270;49.004;12.066;2022-08-01T10:40:06;1.60;;;1.50;;
14373;SDS011;7270;49.004;12.066;2022-08-01T10:42:33;1.60;;;1.50;;
14373;SDS011;7270;49.004;12.066;2022-08-01T10:44:59;1.70;;;1.60;;
14373;SDS011;7270;49.004;12.066;2022-08-01T10:47:27;1.52;;;1.42;;
14373;SDS011;7270;49.004;12.066;2022-08-01T10:49:58;1.60;;;1.50;;
14373;SDS011;7270;49.004;12.066;2022-08-01T10:52:30;1.60;;;1.50;;
14373;SDS011;7270;49.004;12.066;2022-08-01T10:55:03;1.60;;;1.50;;
14373;SDS011;7270;49.004;12.066;2022-08-01T10:57:40;1.50;;;1.40;;
14373;SDS011;7270;49.004;12.066;2022-08-01T11:00:08;1.50;;;1.40;;
14373;SDS011;7270;49.004;12.066;2022-08-01T11:02:42;1.50;;;1.40;;
14373;SDS011;7270;49.004;12.066;2022-08-01T11:05:22;1.50;;;1.40;;
14373;SDS011;7270;49.004;12.066;2022-08-01T11:07:51;1.70;;;1.60;;
14373;SDS011;7270;49.004;12.066;2022-08-01T11:10:19;1.50;;;1.40;;
14373;SDS011;7270;49.004;12.066;2022-08-01T11:12:47;1.60;;;1.50;;
14373;SDS011;7270;49.004;12.066;2022-08-01T11:15:18;1.47;;;1.37;;
14373;SDS011;7270;49.004;12.066;2022-08-01T11:17:53;1.50;;;1.40;;
14373;SDS011;7270;49.004;12.066;2022-08-01T11:20:19;1.50;;;1.40;;
14373;SDS011;7270;49.004;12.066;2022-08-01T11:28:23;1.67;;;1.57;;
14373;SDS011;7270;49.004;12.066;2022-08-01T11:30:50;1.67;;;1.57;;
14373;SDS011;7270;49.004;12.066;2022-08-01T11:33:17;1.50;;;1.40;;
14373;SDS011;7270;49.004;12.066;2022-08-01T11:38:27;1.57;;;1.47;;
14373;SDS011;7270;49.004;12.066;2022-08-01T11:41:08;1.60;;;1.50;;
14373;SDS011;7270;49.004;12.066;2022-08-01T11:46:21;1.50;;;1.40;;
14373;SDS011;7270;49.004;12.066;2022-08-01T11:49:21;1.50;;;1.40;;
14373;SDS011;7270;49.004;12.066;2022-08-01T11:51:52;1.63;;;1.53;;
14373;SDS011;7270;49.004;12.066;2022-08-01T11:54:24;1.50;;;1.40;;
14373;SDS011;7270;49.004;12.066;2022-08-01T11:56:56;1.60;;;1.50;;
14373;SDS011;7270;49.004;12.066;2022-08-01T11:59:23;1.70;;;1.60;;
14373;SDS011;7270;49.004;12.066;2022-08-01T12:01:51;1.60;;;1.50;;
14373;SDS011;7270;49.004;12.066;2022-08-01T12:04:18;1.50;;;1.40;;
14373;SDS011;7270;49.004;12.066;2022-08-01T12:06:44;1.60;;;1.50;;
14373;SDS011;7270;49.004;12.066;2022-08-01T12:09:17;1.70;;;1.60;;
14373;SDS011;7270;49.004;12.066;2022-08-01T12:11:44;1.60;;;1.50;;
14373;SDS011;7270;49.004;12.066;2022-08-01T12:14:22;1.57;;;1.47;;
14373;SDS011;7270;49.004;12.066;2022-08-01T12:16:51;1.60;;;1.50;;
14373;SDS011;7270;49.004;12.066;2022-08-01T12:19:19;1.50;;;1.40;;
14373;SDS011;7270;49.004;12.066;2022-08-01T12:21:45;1.60;;;1.50;;
14373;SDS011;7270;49.004;12.066;2022-08-01T12:24:11;1.50;;;1.40;;
14373;SDS011;7270;49.004;12.066;2022-08-01T12:26:41;1.60;;;1.50;;
14373;SDS011;7270;49.004;12.066;2022-08-01T12:29:07;1.60;;;1.50;;
14373;SDS011;7270;49.004;12.066;2022-08-01T12:31:34;1.60;;;1.50;;
14373;SDS011;7270;49.004;12.066;2022-08-01T12:36:44;1.60;;;1.50;;
14373;SDS011;7270;49.004;12.066;2022-08-01T12:39:11;1.50;;;1.40;;
14373;SDS011;7270;49.004;12.066;2022-08-01T12:41:37;1.50;;;1.40;;
14373;SDS011;7270;49.004;12.066;2022-08-01T12:44:12;1.40;;;1.30;;
14373;SDS011;7270;49.004;12.066;2022-08-01T12:46:39;1.60;;;1.50;;
14373;SDS011;7270;49.004;12.066;2022-08-01T12:49:06;1.50;;;1.40;;
14373;SDS011;7270;49.004;12.066;2022-08-01T12:51:32;1.50;;;1.40;;
14373;SDS011;7270;49.004;12.066;2022-08-01T12:54:00;1.60;;;1.50;;
14373;SDS011;7270;49.004;12.066;2022-08-01T12:56:30;1.50;;;1.40;;
14373;SDS011;7270;49.004;12.066;2022-08-01T12:58:57;1.43;;;1.33;;
14373;SDS011;7270;49.004;12.066;2022-08-01T13:01:25;1.60;;;1.50;;
14373;SDS011;7270;49.004;12.066;2022-08-01T13:06:29;1.50;;;1.40;;
14373;SDS011;7270;49.004;12.066;2022-08-01T13:09:05;1.30;;;1.20;;
14373;SDS011;7270;49.004;12.066;2022-08-01T13:11:31;1.40;;;1.30;;
14373;SDS011;7270;49.004;12.066;2022-08-01T13:13:58;1.40;;;1.30;;
14373;SDS011;7270;49.004;12.066;2022-08-01T13:16:25;1.40;;;1.30;;
14373;SDS011;7270;49.004;12.066;2022-08-01T13:18:52;1.30;;;1.20;;
14373;SDS011;7270;49.004;12.066;2022-08-01T13:21:19;1.30;;;1.30;;
14373;SDS011;7270;49.004;12.066;2022-08-01T13:23:59;1.20;;;1.20;;
14373;SDS011;7270;49.004;12.066;2022-08-01T13:26:43;1.40;;;1.30;;
14373;SDS011;7270;49.004;12.066;2022-08-01T13:29:10;1.60;;;1.50;;
14373;SDS011;7270;49.004;12.066;2022-08-01T13:31:37;1.50;;;1.40;;
14373;SDS011;7270;49.004;12.066;2022-08-01T13:34:08;1.40;;;1.30;;
14373;SDS011;7270;49.004;12.066;2022-08-01T13:36:41;1.37;;;1.27;;
14373;SDS011;7270;49.004;12.066;2022-08-01T13:39:08;1.40;;;1.30;;
14373;SDS011;7270;49.004;12.066;2022-08-01T13:41:53;1.40;;;1.30;;
14373;SDS011;7270;49.004;12.066;2022-08-01T13:44:21;1.40;;;1.30;;
14373;SDS011;7270;49.004;12.066;2022-08-01T13:46:47;1.47;;;1.37;;
14373;SDS011;7270;49.004;12.066;2022-08-01T13:49:16;1.20;;;1.20;;
14373;SDS011;7270;49.004;12.066;2022-08-01T13:51:43;1.40;;;1.30;;
14373;SDS011;7270;49.004;12.066;2022-08-01T13:54:10;1.37;;;1.27;;
14373;SDS011;7270;49.004;12.066;2022-08-01T13:56:37;1.53;;;1.43;;
14373;SDS011;7270;49.004;12.066;2022-08-01T13:59:07;1.50;;;1.40;;
14373;SDS011;7270;49.004;12.066;2022-08-01T14:01:34;1.40;;;1.30;;
14373;SDS011;7270;49.004;12.066;2022-08-01T14:04:01;1.50;;;1.40;;
14373;SDS011;7270;49.004;12.066;2022-08-01T14:06:27;1.50;;;1.40;;
14373;SDS011;7270;49.004;12.066;2022-08-01T14:08:53;1.40;;;1.30;;
14373;SDS011;7270;49.004;12.066;2022-08-01T14:11:20;1.40;;;1.30;;
14373;SDS011;7270;49.004;12.066;2022-08-01T14:13:46;1.40;;;1.30;;
14373;SDS011;7270;49.004;12.066;2022-08-01T14:16:14;1.43;;;1.33;;
14373;SDS011;7270;49.004;12.066;2022-08-01T14:18:42;1.40;;;1.30;;
14373;SDS011;7270;49.004;12.066;2022-08-01T14:21:08;1.40;;;1.30;;
14373;SDS011;7270;49.004;12.066;2022-08-01T14:23:34;1.40;;;1.30;;
14373;SDS011;7270;49.004;12.066;2022-08-01T14:26:11;1.40;;;1.30;;
14373;SDS011;7270;49.004;12.066;2022-08-01T14:28:38;1.40;;;1.30;;
14373;SDS011;7270;49.004;12.066;2022-08-01T14:31:04;1.40;;;1.30;;
14373;SDS011;7270;49.004;12.066;2022-08-01T14:33:32;1.40;;;1.30;;
14373;SDS011;7270;49.004;12.066;2022-08-01T14:35:59;1.40;;;1.30;;
14373;SDS011;7270;49.004;12.066;2022-08-01T14:38:25;1.20;;;1.20;;
14373;SDS011;7270;49.004;12.066;2022-08-01T14:40:54;1.30;;;1.20;;
14373;SDS011;7270;49.004;12.066;2022-08-01T14:43:20;1.30;;;1.20;;
14373;SDS011;7270;49.004;12.066;2022-08-01T14:45:47;1.40;;;1.30;;
14373;SDS011;7270;49.004;12.066;2022-08-01T14:48:14;1.50;;;1.40;;
14373;SDS011;7270;49.004;12.066;2022-08-01T14:50:42;1.20;;;1.20;;
14373;SDS011;7270;49.004;12.066;2022-08-01T14:53:09;1.40;;;1.30;;
14373;SDS011;7270;49.004;12.066;2022-08-01T14:55:35;1.47;;;1.37;;
14373;SDS011;7270;49.004;12.066;2022-08-01T14:58:01;1.33;;;1.30;;
14373;SDS011;7270;49.004;12.066;2022-08-01T15:00:28;1.20;;;1.20;;
14373;SDS011;7270;49.004;12.066;2022-08-01T15:02:54;1.40;;;1.30;;
14373;SDS011;7270;49.004;12.066;2022-08-01T15:05:28;1.50;;;1.40;;
14373;SDS011;7270;49.004;12.066;2022-08-01T15:07:59;1.40;;;1.30;;
14373;SDS011;7270;49.004;12.066;2022-08-01T15:10:25;1.10;;;1.10;;